Boo Sonier — WDG3281 — position and weather

sailwx.info

Track history (hours):
 
Tides and Currents Weather Stations Pressure Air Temp Water Temp Dewpoint Dewpoint Depression Visibility Wind Speed Wind Dir Waves Ship Positions

Boo Sonier

Owner: LeBeouf Bros. Towing, LLC, Houma, LA. More information available from US FCC via Universal Licensing System and Coast Guard Vessel Documentation Center.

Last reported at 2014-Oct-31 03:16 UTC. Time now 2014-Oct-31 07:08 UTC.
Position N 29°38' W 091°20'.

Length 21 m.

Type: Tug. MMSI: 367524420.

Date/timePositionNaut miles runAvg speedWind from/ knotsBaromVisibWave heightAir tempDewpointWater temp
2014-Oct-31 03:16N 29°38' W 091°20'5 7.3
2014-Oct-31 02:33N 29°40' W 091°14'0 0.2
2014-Oct-31 01:32N 29°40' W 091°14'0 0.0
2014-Oct-31 00:31N 29°40' W 091°14'2 2.3
2014-Oct-30 23:33N 29°39' W 091°16'3 0.1
2014-Oct-29 13:30N 29°38' W 091°20'5 5.4
2014-Oct-29 12:32N 29°40' W 091°14'0 0.0
2014-Oct-29 11:32N 29°40' W 091°14'0 0.0
2014-Oct-29 10:32N 29°40' W 091°14'0 0.0
2014-Oct-29 09:32N 29°40' W 091°14'2 2.3
2014-Oct-29 08:33N 29°41' W 091°12'2 1.6
2014-Oct-29 07:33N 29°41' W 091°10'2 2.4
2014-Oct-29 06:33N 29°40' W 091°08'30 3.8
2014-Oct-28 22:33N 29°34' W 090°33'6 5.7
2014-Oct-28 21:33N 29°33' W 090°27'32 2.0
2014-Oct-28 05:27N 29°57' W 090°01'1 0.9
2014-Oct-28 04:29N 29°58' W 090°02'3 0.1
2014-Oct-26 18:32N 29°60' W 089°59'  
2014-Oct-24 00:34N 29°59' W 090°01'  
Track history (hours):
 
Tides and Currents Weather Stations Pressure Air Temp Water Temp Dewpoint Dewpoint Depression Visibility Wind Speed Wind Dir Waves Ship Positions

Boo Sonier

Owner: LeBeouf Bros. Towing, LLC, Houma, LA. More information available from US FCC via Universal Licensing System and Coast Guard Vessel Documentation Center.

Last reported at 2014-Oct-31 03:16 UTC. Time now 2014-Oct-31 07:08 UTC.
Position N 29°38' W 091°20'.

Length 21 m.

Type: Tug. MMSI: 367524420.

Date/timePositionNaut miles runAvg speedWind from/ knotsBaromVisibWave heightAir tempDewpointWater temp
2014-Oct-31 03:16N 29°38' W 091°20'5 7.3
2014-Oct-31 02:33N 29°40' W 091°14'0 0.2
2014-Oct-31 01:32N 29°40' W 091°14'0 0.0
2014-Oct-31 00:31N 29°40' W 091°14'2 2.3
2014-Oct-30 23:33N 29°39' W 091°16'3 0.1
2014-Oct-29 13:30N 29°38' W 091°20'5 5.4
2014-Oct-29 12:32N 29°40' W 091°14'0 0.0
2014-Oct-29 11:32N 29°40' W 091°14'0 0.0
2014-Oct-29 10:32N 29°40' W 091°14'0 0.0
2014-Oct-29 09:32N 29°40' W 091°14'2 2.3
2014-Oct-29 08:33N 29°41' W 091°12'2 1.6
2014-Oct-29 07:33N 29°41' W 091°10'2 2.4
2014-Oct-29 06:33N 29°40' W 091°08'30 3.8
2014-Oct-28 22:33N 29°34' W 090°33'6 5.7
2014-Oct-28 21:33N 29°33' W 090°27'32 2.0
2014-Oct-28 05:27N 29°57' W 090°01'1 0.9
2014-Oct-28 04:29N 29°58' W 090°02'3 0.1
2014-Oct-26 18:32N 29°60' W 089°59'  
2014-Oct-24 00:34N 29°59' W 090°01'  

Dump ship's entire track history